createdAt,value
2024-03-11T00:00:45.305Z,15.80
2024-03-11T00:03:13.639Z,13.07
2024-03-11T00:05:41.876Z,14.37
2024-03-11T00:08:10.715Z,13.93
2024-03-11T00:10:39.779Z,13.63
2024-03-11T00:13:10.588Z,13.93
2024-03-11T00:15:39.599Z,15.30
2024-03-11T00:18:09.086Z,13.60
2024-03-11T00:20:37.241Z,13.73
2024-03-11T00:23:05.108Z,13.13
2024-03-11T00:25:32.601Z,14.93
2024-03-11T00:28:00.447Z,15.47
2024-03-11T00:30:27.897Z,14.37
2024-03-11T00:32:55.523Z,13.87
2024-03-11T00:35:25.616Z,13.53
2024-03-11T00:37:53.169Z,13.47
2024-03-11T00:40:21.133Z,13.27
2024-03-11T00:42:48.652Z,13.80
2024-03-11T00:45:16.177Z,13.43
2024-03-11T00:47:44.419Z,13.50
2024-03-11T00:50:14.774Z,12.40
2024-03-11T00:52:45.978Z,15.17
2024-03-11T00:55:13.844Z,14.13
2024-03-11T00:57:43.685Z,12.73
2024-03-11T01:00:13.771Z,13.60
2024-03-11T01:02:42.765Z,14.30
2024-03-11T01:05:11.383Z,13.53
2024-03-11T01:07:45.640Z,13.77
2024-03-11T01:10:16.893Z,13.70
2024-03-11T01:12:46.195Z,12.90
2024-03-11T01:15:14.130Z,15.07
2024-03-11T01:17:42.586Z,15.50
2024-03-11T01:20:14.805Z,13.87
2024-03-11T01:22:42.751Z,12.67
2024-03-11T01:25:11.906Z,11.93
2024-03-11T01:27:42.878Z,15.17
2024-03-11T01:30:11.480Z,14.63
2024-03-11T01:32:39.637Z,13.27
2024-03-11T01:35:07.765Z,14.13
2024-03-11T01:37:37.633Z,13.20
2024-03-11T01:40:11.198Z,12.60
2024-03-11T01:42:39.854Z,13.03
2024-03-11T01:45:09.453Z,12.53
2024-03-11T01:47:39.174Z,14.30
2024-03-11T01:50:09.479Z,13.53
2024-03-11T01:52:39.451Z,13.23
2024-03-11T01:55:07.620Z,14.33
2024-03-11T01:57:35.462Z,13.57
2024-03-11T02:00:09.517Z,12.97
2024-03-11T02:02:39.977Z,13.53
2024-03-11T02:05:10.668Z,12.63
2024-03-11T02:07:38.977Z,13.73
2024-03-11T02:10:09.276Z,14.03
2024-03-11T02:12:37.566Z,13.60
2024-03-11T02:15:06.485Z,15.27
2024-03-11T02:17:36.961Z,14.17
2024-03-11T02:20:09.375Z,12.43
2024-03-11T02:22:37.535Z,13.47
2024-03-11T02:25:06.954Z,13.53
2024-03-11T02:27:34.534Z,12.63
2024-03-11T02:30:02.286Z,13.30
2024-03-11T02:32:30.071Z,13.73
2024-03-11T02:34:57.691Z,13.17
2024-03-11T02:37:25.253Z,14.57
2024-03-11T02:39:52.996Z,12.63
2024-03-11T02:42:21.855Z,15.17
2024-03-11T02:44:49.933Z,12.73
2024-03-11T02:47:18.210Z,12.17
2024-03-11T02:49:45.829Z,12.87
2024-03-11T02:52:13.394Z,13.17
2024-03-11T02:54:42.123Z,11.50
2024-03-11T02:57:09.863Z,12.43
2024-03-11T02:59:41.732Z,15.33
2024-03-11T03:02:09.888Z,13.07
2024-03-11T03:04:40.550Z,14.20
2024-03-11T03:07:08.401Z,13.43
2024-03-11T03:09:37.689Z,14.20
2024-03-11T03:12:05.890Z,12.43
2024-03-11T03:14:33.507Z,13.47
2024-03-11T03:17:02.314Z,14.37
2024-03-11T03:19:29.858Z,13.67
2024-03-11T03:21:57.406Z,12.00
2024-03-11T03:24:24.922Z,13.63
2024-03-11T03:26:52.507Z,12.43
2024-03-11T03:29:20.486Z,13.00
2024-03-11T03:31:48.075Z,12.77
2024-03-11T03:34:16.823Z,12.87
2024-03-11T03:36:44.508Z,12.40
2024-03-11T03:39:12.061Z,13.03
2024-03-11T03:41:39.643Z,13.43
2024-03-11T03:44:07.371Z,12.83
2024-03-11T03:46:34.916Z,14.87
2024-03-11T03:49:02.516Z,15.40
2024-03-11T03:51:31.331Z,13.70
2024-03-11T03:54:00.279Z,13.87
2024-03-11T03:56:27.978Z,14.77
2024-03-11T03:58:56.037Z,14.13
2024-03-11T04:01:24.782Z,13.90
2024-03-11T04:03:52.437Z,13.57
2024-03-11T04:06:19.928Z,12.17
2024-03-11T04:08:48.791Z,13.40
2024-03-11T04:11:16.338Z,14.80
2024-03-11T04:13:43.860Z,13.00
2024-03-11T04:16:13.205Z,14.57
2024-03-11T04:18:43.927Z,13.73
2024-03-11T04:21:13.084Z,13.93
2024-03-11T04:23:41.282Z,12.80
2024-03-11T04:26:10.287Z,13.43
2024-03-11T04:28:37.957Z,13.57
2024-03-11T04:31:06.143Z,12.43
2024-03-11T04:33:35.159Z,12.70
2024-03-11T04:36:03.024Z,13.20
2024-03-11T04:38:30.716Z,12.70
2024-03-11T04:40:58.305Z,14.20
2024-03-11T04:43:27.836Z,14.57
2024-03-11T04:45:56.088Z,13.07
2024-03-11T04:48:23.819Z,12.80
2024-03-11T04:50:51.457Z,12.27
2024-03-11T04:53:19.138Z,12.27
2024-03-11T04:55:48.060Z,12.37
2024-03-11T04:58:15.728Z,13.47
2024-03-11T05:00:44.526Z,13.77
2024-03-11T05:03:14.263Z,12.70
2024-03-11T05:05:42.208Z,13.17
2024-03-11T05:08:10.769Z,12.70
2024-03-11T05:10:39.218Z,13.03
2024-03-11T05:13:07.069Z,13.60
2024-03-11T05:15:34.781Z,12.60
2024-03-11T05:18:04.328Z,14.23
2024-03-11T05:20:32.151Z,13.13
2024-03-11T05:22:59.730Z,13.30
2024-03-11T05:25:27.688Z,13.63
2024-03-11T05:27:55.231Z,14.27
2024-03-11T05:30:23.170Z,13.23
2024-03-11T05:32:50.727Z,13.33
2024-03-11T05:35:23.045Z,13.00
2024-03-11T05:37:53.366Z,11.30
2024-03-11T05:40:20.937Z,13.43
2024-03-11T05:42:49.693Z,13.83
2024-03-11T05:45:17.558Z,12.20
2024-03-11T05:47:46.602Z,12.40
2024-03-11T05:50:15.978Z,12.23
2024-03-11T05:52:47.384Z,12.57
2024-03-11T05:55:15.236Z,12.43
2024-03-11T05:57:44.634Z,12.33
2024-03-11T06:00:17.364Z,12.40
2024-03-11T06:02:46.339Z,11.93
2024-03-11T06:05:15.340Z,12.67
2024-03-11T06:07:43.568Z,13.33
2024-03-11T06:10:12.915Z,11.83
2024-03-11T06:12:40.926Z,12.13
2024-03-11T06:15:09.801Z,12.73
2024-03-11T06:17:37.380Z,25.33
2024-03-11T06:20:10.633Z,15.27
2024-03-11T06:22:39.188Z,14.60
2024-03-11T06:25:07.834Z,11.87
2024-03-11T06:27:37.367Z,12.53
2024-03-11T06:30:06.137Z,19.30
2024-03-11T06:32:35.009Z,12.43
2024-03-11T06:35:04.373Z,12.37
2024-03-11T06:37:33.017Z,10.77
2024-03-11T06:40:00.658Z,13.50
2024-03-11T06:42:30.166Z,13.17
2024-03-11T06:44:59.018Z,12.70
2024-03-11T06:47:26.925Z,12.83
2024-03-11T06:49:54.551Z,12.53
2024-03-11T06:52:22.718Z,13.43
2024-03-11T06:54:50.475Z,12.27
2024-03-11T06:57:18.070Z,13.77
2024-03-11T06:59:46.499Z,12.57
2024-03-11T07:02:15.717Z,12.20
2024-03-11T07:04:43.835Z,12.03
2024-03-11T07:07:11.295Z,11.83
2024-03-11T07:09:38.728Z,13.73
2024-03-11T07:12:05.595Z,11.57
2024-03-11T07:14:33.150Z,12.80
2024-03-11T07:17:03.475Z,12.63
2024-03-11T07:19:32.579Z,11.60
2024-03-11T07:22:00.087Z,12.43
2024-03-11T07:24:28.251Z,11.97
2024-03-11T07:26:56.518Z,11.97
2024-03-11T07:29:24.025Z,13.10
2024-03-11T07:31:55.112Z,12.70
2024-03-11T07:34:24.502Z,12.30
2024-03-11T07:36:56.801Z,11.00
2024-03-11T07:39:25.626Z,13.57
2024-03-11T07:41:54.201Z,11.90
2024-03-11T07:44:21.908Z,12.60
2024-03-11T07:46:49.424Z,11.60
2024-03-11T07:49:17.149Z,11.73
2024-03-11T07:51:44.653Z,10.97
2024-03-11T07:54:13.471Z,12.27
2024-03-11T07:56:41.886Z,13.27
2024-03-11T07:59:09.615Z,11.83
2024-03-11T08:01:37.631Z,12.50
2024-03-11T08:04:07.226Z,12.70
2024-03-11T08:06:36.293Z,12.87
2024-03-11T08:09:04.127Z,12.27
2024-03-11T08:11:33.190Z,12.17
2024-03-11T08:14:00.657Z,13.10
2024-03-11T08:16:28.387Z,12.13
2024-03-11T08:18:55.902Z,12.83
2024-03-11T08:21:23.747Z,12.70
2024-03-11T08:23:51.259Z,12.93
2024-03-11T08:26:19.369Z,12.83
2024-03-11T08:28:48.133Z,13.17
2024-03-11T08:31:15.744Z,13.07
2024-03-11T08:33:43.225Z,13.30
2024-03-11T08:36:10.837Z,12.73
2024-03-11T08:38:39.373Z,13.03
2024-03-11T08:41:07.768Z,13.13
2024-03-11T08:43:35.422Z,14.10
2024-03-11T08:46:04.450Z,14.40
2024-03-11T08:48:32.282Z,14.03
2024-03-11T08:51:00.561Z,13.70
2024-03-11T08:53:28.699Z,14.83
2024-03-11T08:55:57.321Z,15.17
2024-03-11T08:58:25.841Z,14.50
2024-03-11T09:00:53.757Z,14.73
2024-03-11T09:03:24.413Z,15.17
2024-03-11T09:05:51.915Z,16.80
2024-03-11T09:08:19.739Z,15.90
2024-03-11T09:10:48.051Z,15.07
2024-03-11T09:13:15.519Z,16.50
2024-03-11T09:15:45.836Z,16.73
2024-03-11T09:18:14.379Z,17.07
2024-03-11T09:20:46.703Z,17.23
2024-03-11T09:23:14.926Z,18.13
2024-03-11T09:25:42.567Z,16.47
2024-03-11T09:28:10.411Z,18.47
2024-03-11T09:30:39.258Z,19.23
2024-03-11T09:33:10.108Z,22.63
2024-03-11T09:35:37.922Z,21.60
2024-03-11T09:38:07.081Z,21.90
2024-03-11T09:40:34.537Z,23.83
2024-03-11T09:43:04.473Z,22.27
2024-03-11T09:45:36.136Z,22.20
2024-03-11T09:48:05.533Z,22.63
2024-03-11T09:50:35.011Z,22.00
2024-03-11T09:53:07.999Z,22.13
2024-03-11T09:55:38.756Z,20.93
2024-03-11T09:58:11.884Z,22.50
2024-03-11T10:00:50.515Z,22.10
2024-03-11T10:03:21.934Z,21.57
2024-03-11T10:05:49.672Z,21.47
2024-03-11T10:08:19.612Z,20.97
2024-03-11T10:11:13.350Z,21.60
2024-03-11T10:13:43.457Z,20.97
2024-03-11T10:16:18.418Z,21.53
2024-03-11T10:18:55.233Z,21.73
2024-03-11T10:21:23.071Z,22.33
2024-03-11T10:23:50.963Z,23.30
2024-03-11T10:26:19.863Z,21.63
2024-03-11T10:28:48.903Z,20.77
2024-03-11T10:31:24.946Z,21.53
2024-03-11T10:33:55.182Z,21.53
2024-03-11T10:36:26.195Z,20.40
2024-03-11T10:38:58.832Z,20.37
2024-03-11T10:41:29.347Z,19.83
2024-03-11T10:43:58.498Z,19.40
2024-03-11T10:46:26.295Z,21.13
2024-03-11T10:48:55.501Z,19.20
2024-03-11T10:51:23.558Z,19.63
2024-03-11T10:53:53.559Z,19.90
2024-03-11T10:56:24.934Z,18.63
2024-03-11T10:58:57.011Z,18.90
2024-03-11T11:01:34.426Z,19.90
2024-03-11T11:04:07.163Z,20.37
2024-03-11T11:06:35.230Z,19.47
2024-03-11T11:09:12.346Z,19.60
2024-03-11T11:11:43.560Z,19.97
2024-03-11T11:14:13.039Z,20.40
2024-03-11T11:16:44.794Z,19.40
2024-03-11T11:19:16.042Z,19.50
2024-03-11T11:21:45.475Z,20.00
2024-03-11T11:24:32.627Z,20.23
2024-03-11T11:27:07.639Z,19.63
2024-03-11T11:29:37.069Z,18.67
2024-03-11T11:32:06.630Z,18.37
2024-03-11T11:34:49.012Z,18.37
2024-03-11T11:37:35.038Z,18.23
2024-03-11T11:40:30.482Z,17.73
2024-03-11T11:42:59.853Z,17.80
2024-03-11T11:45:57.451Z,17.17
2024-03-11T11:48:27.870Z,17.80
2024-03-11T11:51:00.312Z,17.67
2024-03-11T11:53:34.543Z,16.43
2024-03-11T11:56:05.121Z,16.23
2024-03-11T11:58:33.950Z,16.57
2024-03-11T12:01:05.814Z,16.90
2024-03-11T12:03:36.308Z,15.70
2024-03-11T12:06:19.294Z,15.20
2024-03-11T12:08:48.237Z,15.70
2024-03-11T12:11:19.132Z,15.30
2024-03-11T12:13:46.329Z,14.10
2024-03-11T12:16:24.960Z,14.43
2024-03-11T12:19:01.256Z,14.57
2024-03-11T12:21:30.432Z,14.37
2024-03-11T12:23:58.174Z,12.93
2024-03-11T12:26:32.020Z,13.87
2024-03-11T12:29:02.357Z,13.77
2024-03-11T12:31:34.015Z,12.87
2024-03-11T12:34:03.385Z,15.37
2024-03-11T12:36:31.598Z,12.90
2024-03-11T12:38:59.777Z,12.60
2024-03-11T12:41:42.095Z,14.00
2024-03-11T12:44:18.193Z,13.27
2024-03-11T12:46:49.149Z,13.90
2024-03-11T12:49:16.738Z,13.67
2024-03-11T12:51:44.494Z,13.80
2024-03-11T12:54:20.655Z,13.10
2024-03-11T12:57:05.870Z,12.70
2024-03-11T12:59:34.348Z,12.27
2024-03-11T13:02:18.360Z,12.90
2024-03-11T13:04:47.856Z,11.80
2024-03-11T13:07:15.921Z,10.90
2024-03-11T13:09:44.443Z,9.40
2024-03-11T13:12:18.217Z,10.30
2024-03-11T13:14:47.141Z,8.73
2024-03-11T13:17:19.375Z,8.13
2024-03-11T13:19:48.454Z,8.93
2024-03-11T13:22:19.879Z,8.80
2024-03-11T13:24:48.271Z,9.07
2024-03-11T13:27:16.446Z,8.23
2024-03-11T13:29:44.082Z,7.93
2024-03-11T13:32:13.469Z,8.00
2024-03-11T13:34:43.668Z,8.00
2024-03-11T13:37:11.540Z,8.07
2024-03-11T13:39:39.947Z,8.67
2024-03-11T13:42:10.636Z,7.60
2024-03-11T13:44:38.650Z,8.20
2024-03-11T13:47:07.526Z,6.83
2024-03-11T13:49:34.967Z,7.27
2024-03-11T13:52:06.312Z,6.60
2024-03-11T13:54:38.192Z,7.33
2024-03-11T13:57:08.360Z,6.17
2024-03-11T13:59:36.185Z,5.20
2024-03-11T14:02:04.097Z,5.90
2024-03-11T14:04:31.759Z,5.87
2024-03-11T14:06:59.723Z,5.20
2024-03-11T14:09:28.624Z,5.20
2024-03-11T14:11:56.082Z,4.83
2024-03-11T14:14:24.792Z,4.50
2024-03-11T14:16:52.985Z,4.13
2024-03-11T14:19:20.586Z,3.73
2024-03-11T14:21:48.743Z,3.17
2024-03-11T14:24:16.608Z,2.73
2024-03-11T14:26:45.577Z,3.40
2024-03-11T14:29:16.464Z,3.00
2024-03-11T14:31:46.266Z,2.57
2024-03-11T14:34:15.097Z,3.10
2024-03-11T14:36:44.867Z,2.30
2024-03-11T14:39:18.198Z,1.87
2024-03-11T14:41:48.520Z,1.60
2024-03-11T14:44:16.648Z,1.73
2024-03-11T14:46:53.189Z,1.50
2024-03-11T14:49:26.537Z,1.60
2024-03-11T14:51:56.107Z,1.70
2024-03-11T14:54:27.079Z,1.70
2024-03-11T14:56:57.740Z,1.67
2024-03-11T14:59:26.404Z,1.90
2024-03-11T15:01:56.490Z,1.70
2024-03-11T15:04:26.914Z,1.90
2024-03-11T15:06:54.959Z,1.60
2024-03-11T15:09:23.228Z,1.63
2024-03-11T15:11:53.748Z,1.70
2024-03-11T15:14:22.585Z,1.40
2024-03-11T15:16:56.719Z,1.70
2024-03-11T15:19:25.340Z,2.00
2024-03-11T15:21:53.032Z,1.60
2024-03-11T15:24:22.293Z,1.50
2024-03-11T15:26:51.068Z,1.50
2024-03-11T15:29:18.642Z,1.77
2024-03-11T15:31:48.967Z,1.87
2024-03-11T15:34:16.698Z,1.77
2024-03-11T15:36:44.284Z,2.70
2024-03-11T15:39:12.546Z,2.10
2024-03-11T15:41:40.726Z,1.50
2024-03-11T15:44:10.918Z,1.60
2024-03-11T15:46:40.057Z,1.70
2024-03-11T15:49:09.129Z,1.80
2024-03-11T15:51:37.068Z,2.50
2024-03-11T15:54:06.763Z,2.17
2024-03-11T15:56:35.193Z,2.17
2024-03-11T15:59:02.638Z,2.10
2024-03-11T16:01:32.849Z,1.80
2024-03-11T16:04:01.631Z,2.30
2024-03-11T16:06:31.409Z,1.93
2024-03-11T16:08:59.000Z,1.70
2024-03-11T16:11:27.183Z,1.83
2024-03-11T16:13:54.394Z,2.00
2024-03-11T16:16:22.274Z,1.93
2024-03-11T16:18:49.018Z,2.10
2024-03-11T16:21:16.574Z,1.60
2024-03-11T16:23:47.172Z,1.73
2024-03-11T16:26:15.556Z,2.00
2024-03-11T16:28:43.868Z,1.57
2024-03-11T16:31:13.347Z,1.97
2024-03-11T16:33:41.025Z,1.90
2024-03-11T16:36:11.105Z,2.43
2024-03-11T16:38:37.682Z,2.10
2024-03-11T16:41:06.538Z,1.90
2024-03-11T16:43:33.370Z,1.87
2024-03-11T16:46:02.873Z,2.07
2024-03-11T16:48:29.675Z,2.73
2024-03-11T16:50:57.194Z,2.17
2024-03-11T16:53:23.826Z,1.93
2024-03-11T16:55:55.106Z,1.97
2024-03-11T16:58:25.447Z,1.90
2024-03-11T17:00:53.737Z,2.17
2024-03-11T17:03:21.542Z,2.17
2024-03-11T17:05:49.740Z,2.13
2024-03-11T17:08:17.221Z,2.57
2024-03-11T17:10:46.781Z,2.70
2024-03-11T17:13:15.858Z,3.10
2024-03-11T17:15:44.997Z,3.33
2024-03-11T17:18:13.595Z,3.40
2024-03-11T17:20:46.027Z,3.33
2024-03-11T17:23:17.196Z,4.23
2024-03-11T17:25:45.999Z,3.53
2024-03-11T17:28:17.334Z,2.70
2024-03-11T17:30:47.948Z,3.10
2024-03-11T17:33:15.735Z,2.90
2024-03-11T17:35:46.366Z,2.97
2024-03-11T17:38:14.727Z,2.90
2024-03-11T17:40:44.025Z,2.70
2024-03-11T17:43:11.802Z,2.93
2024-03-11T17:45:43.115Z,2.87
2024-03-11T17:48:12.184Z,3.27
2024-03-11T17:50:40.351Z,3.53
2024-03-11T17:53:07.466Z,2.93
2024-03-11T17:55:38.184Z,2.90
2024-03-11T17:58:06.013Z,4.07
2024-03-11T18:00:35.374Z,3.57
2024-03-11T18:03:03.749Z,2.60
2024-03-11T18:05:33.696Z,2.60
2024-03-11T18:08:01.066Z,3.10
2024-03-11T18:10:33.181Z,3.30
2024-03-11T18:13:01.514Z,3.10
2024-03-11T18:15:29.884Z,3.13
2024-03-11T18:17:56.856Z,3.23
2024-03-11T18:20:28.065Z,2.83
2024-03-11T18:22:57.264Z,3.13
2024-03-11T18:25:26.140Z,3.50
2024-03-11T18:27:57.840Z,3.27
2024-03-11T18:30:26.453Z,3.43
2024-03-11T18:32:57.091Z,3.57
2024-03-11T18:35:26.596Z,3.53
2024-03-11T18:37:54.835Z,3.60
2024-03-11T18:40:24.682Z,3.83
2024-03-11T18:42:53.353Z,4.10
2024-03-11T18:45:24.218Z,3.53
2024-03-11T18:47:52.006Z,4.60
2024-03-11T18:50:20.941Z,4.30
2024-03-11T18:52:58.406Z,4.17
2024-03-11T18:55:31.582Z,4.60
2024-03-11T18:58:00.809Z,4.97
2024-03-11T19:00:30.911Z,5.10
2024-03-11T19:03:00.335Z,5.80
2024-03-11T19:05:28.637Z,6.77
2024-03-11T19:07:57.181Z,7.10
2024-03-11T19:10:28.034Z,7.20
2024-03-11T19:12:57.826Z,7.67
2024-03-11T19:15:28.837Z,8.53
2024-03-11T19:17:56.886Z,9.13
2024-03-11T19:20:26.805Z,8.90
2024-03-11T19:22:56.084Z,8.87
2024-03-11T19:25:28.012Z,9.60
2024-03-11T19:27:58.281Z,10.10
2024-03-11T19:30:29.121Z,8.63
2024-03-11T19:32:58.529Z,8.27
2024-03-11T19:35:26.402Z,9.13
2024-03-11T19:38:49.861Z,8.60
2024-03-11T19:41:27.198Z,9.57
2024-03-11T19:44:17.350Z,7.67
2024-03-11T19:47:18.023Z,8.00
2024-03-11T19:50:12.336Z,8.83
2024-03-11T19:53:58.863Z,8.00
2024-03-11T19:57:26.323Z,7.07
2024-03-11T20:00:35.484Z,8.37
2024-03-11T20:03:19.207Z,9.03
2024-03-11T20:06:21.693Z,7.13
2024-03-11T20:09:19.322Z,8.80
2024-03-11T20:12:31.132Z,8.90
2024-03-11T20:15:02.648Z,8.90
2024-03-11T20:17:54.072Z,9.57
2024-03-11T20:20:55.009Z,10.50
2024-03-11T20:23:59.594Z,13.37
2024-03-11T20:26:31.709Z,12.10
2024-03-11T20:29:07.151Z,12.23
2024-03-11T20:31:53.256Z,12.20
2024-03-11T20:34:21.136Z,10.50
2024-03-11T20:36:49.214Z,10.37
2024-03-11T20:39:17.707Z,10.43
2024-03-11T20:41:45.273Z,10.77
2024-03-11T20:44:12.751Z,10.40
2024-03-11T20:46:41.515Z,9.50
2024-03-11T20:49:09.340Z,9.83
2024-03-11T20:51:40.635Z,9.07
2024-03-11T20:54:08.486Z,7.63
2024-03-11T20:56:35.988Z,8.23
2024-03-11T20:59:03.663Z,9.83
2024-03-11T21:01:32.482Z,8.43
2024-03-11T21:04:01.979Z,7.93
2024-03-11T21:06:29.517Z,7.10
2024-03-11T21:08:57.012Z,6.50
2024-03-11T21:11:25.031Z,6.60
2024-03-11T21:13:52.556Z,5.70
2024-03-11T21:16:20.601Z,6.90
2024-03-11T21:18:59.083Z,7.17
2024-03-11T21:21:54.715Z,6.33
2024-03-11T21:24:40.351Z,10.93
2024-03-11T21:27:17.055Z,8.40
2024-03-11T21:29:44.779Z,8.67
2024-03-11T21:32:14.276Z,7.83
2024-03-11T21:34:46.022Z,7.50
2024-03-11T21:37:15.939Z,7.53
2024-03-11T21:39:44.689Z,7.70
2024-03-11T21:42:13.022Z,8.10
2024-03-11T21:44:40.665Z,8.27
2024-03-11T21:47:08.144Z,7.23
2024-03-11T21:49:35.598Z,7.50
2024-03-11T21:52:03.094Z,6.93
2024-03-11T21:54:35.074Z,6.20
2024-03-11T21:57:04.523Z,6.23
2024-03-11T21:59:32.011Z,8.27
2024-03-11T22:01:59.539Z,6.77
2024-03-11T22:04:27.084Z,5.97
2024-03-11T22:06:54.558Z,6.40
2024-03-11T22:09:23.957Z,6.60
2024-03-11T22:11:52.829Z,6.93
2024-03-11T22:14:20.367Z,7.60
2024-03-11T22:16:47.841Z,7.77
2024-03-11T22:19:15.302Z,7.20
2024-03-11T22:21:42.822Z,6.40
2024-03-11T22:24:11.806Z,6.47
2024-03-11T22:26:42.514Z,6.57
2024-03-11T22:29:12.733Z,6.50
2024-03-11T22:31:40.867Z,6.03
2024-03-11T22:34:08.744Z,6.60
2024-03-11T22:36:38.276Z,6.17
2024-03-11T22:39:08.945Z,6.87
2024-03-11T22:41:36.557Z,6.70
2024-03-11T22:44:04.138Z,6.17
2024-03-11T22:46:33.131Z,6.10
2024-03-11T22:49:08.508Z,6.50
2024-03-11T22:51:41.109Z,7.30
2024-03-11T22:54:09.102Z,6.40
2024-03-11T22:56:37.909Z,6.70
2024-03-11T22:59:07.383Z,7.63
2024-03-11T23:01:36.447Z,8.10
2024-03-11T23:04:04.353Z,7.50
2024-03-11T23:06:33.417Z,7.33
2024-03-11T23:09:01.086Z,7.53
2024-03-11T23:11:28.777Z,7.83
2024-03-11T23:13:57.363Z,7.87
2024-03-11T23:16:26.844Z,8.83
2024-03-11T23:18:55.727Z,9.57
2024-03-11T23:21:24.390Z,8.70
2024-03-11T23:23:52.006Z,8.03
2024-03-11T23:26:19.546Z,7.60
2024-03-11T23:28:47.279Z,9.17
2024-03-11T23:31:17.550Z,8.77
2024-03-11T23:33:45.282Z,9.33
2024-03-11T23:36:14.595Z,9.93
2024-03-11T23:38:42.278Z,9.03
2024-03-11T23:41:13.143Z,10.53
2024-03-11T23:43:42.134Z,9.00
2024-03-11T23:46:09.993Z,10.67
2024-03-11T23:48:44.361Z,10.13
2024-03-11T23:51:13.816Z,10.23
2024-03-11T23:53:41.611Z,10.40
2024-03-11T23:56:10.193Z,10.00
2024-03-11T23:58:38.832Z,10.00
